Time;durP1;ratioP1;P1;durP2;ratioP2;P2;SDS_P1;SDS_P2;PMS_P1;PMS_P2;Temp;Humidity;BMP_temperature;BMP_pressure;BME280_temperature;BME280_humidity;BME280_pressure;Samples;Min_cycle;Max_cycle;Signal;HPM_P1;HPM_P2
2021/09/25 00:03:13;;;;;;;4.12;2.45;;;;;;;22.16;34.17;101526.94;143713;592;48008;-57
2021/09/25 00:05:42;;;;;;;2.58;2.30;;;;;;;22.18;34.19;101537.63;143724;580;47011;-57
2021/09/25 00:08:10;;;;;;;5.15;1.98;;;;;;;22.20;33.79;101530.81;143727;570;46002;-57
2021/09/25 00:10:37;;;;;;;3.87;2.10;;;;;;;22.10;33.80;101533.44;143729;576;47004;-56
2021/09/25 00:13:05;;;;;;;3.75;2.30;;;;;;;22.07;34.00;101532.03;143726;582;47008;-56
2021/09/25 00:15:33;;;;;;;7.20;2.35;;;;;;;22.08;34.34;101533.69;143724;640;49002;-57
2021/09/25 00:18:02;;;;;;;2.53;1.87;;;;;;;22.08;34.00;101527.38;143722;587;48004;-57
2021/09/25 00:20:42;;;;;;;3.25;2.12;;;;;;;22.08;33.18;101527.38;143730;587;47006;-57
2021/09/25 00:23:09;;;;;;;3.78;2.12;;;;;;;22.11;33.27;101527.72;143726;599;47008;-57
2021/09/25 00:25:36;;;;;;;2.58;2.05;;;;;;;22.13;33.75;101519.25;143725;661;47002;-59
2021/09/25 00:28:03;;;;;;;4.50;2.03;;;;;;;22.07;33.55;101525.72;143726;567;45919;-58
2021/09/25 00:30:31;;;;;;;2.67;1.70;;;;;;;22.11;33.70;101527.72;143729;589;47004;-58
2021/09/25 00:32:58;;;;;;;4.35;2.35;;;;;;;22.07;34.29;101532.03;143725;572;47010;-58
2021/09/25 00:35:25;;;;;;;6.12;2.17;;;;;;;22.08;33.24;101517.28;143718;581;48004;-58
2021/09/25 00:37:52;;;;;;;3.85;2.30;;;;;;;22.11;32.94;101524.97;143729;570;46004;-57
2021/09/25 00:40:20;;;;;;;2.35;1.90;;;;;;;22.12;32.83;101520.31;143726;566;48004;-57
2021/09/25 00:42:48;;;;;;;3.75;2.08;;;;;;;22.12;32.65;101520.31;143725;596;47008;-57
2021/09/25 00:45:18;;;;;;;2.83;2.10;;;;;;;22.07;32.83;101514.78;143725;593;47004;-56
2021/09/25 00:47:46;;;;;;;5.90;2.03;;;;;;;22.06;32.20;101521.37;143729;567;46002;-57
2021/09/25 00:50:14;;;;;;;4.22;2.30;;;;;;;22.02;32.08;101523.78;143724;573;47004;-57
2021/09/25 00:52:41;;;;;;;2.70;2.10;;;;;;;22.01;31.85;101524.84;143721;584;49010;-57
2021/09/25 00:55:09;;;;;;;2.75;1.85;;;;;;;21.94;32.01;101521.50;143727;743;46010;-56
2021/09/25 00:57:36;;;;;;;2.85;2.00;;;;;;;21.91;32.40;101524.75;143728;604;46002;-58
2021/09/25 01:00:07;;;;;;;4.05;2.10;;;;;;;21.92;32.99;101520.94;143728;594;47004;-57
2021/09/25 01:02:35;;;;;;;3.83;2.20;;;;;;;21.91;32.92;101511.87;143726;568;47012;-57
2021/09/25 01:05:04;;;;;;;3.25;2.00;;;;;;;21.94;33.39;101522.31;143726;580;47002;-57
2021/09/25 01:07:31;;;;;;;2.78;1.90;;;;;;;21.96;32.79;101516.59;143722;765;49002;-57
2021/09/25 01:09:59;;;;;;;4.35;1.95;;;;;;;21.92;32.69;101523.66;143725;588;47008;-57
2021/09/25 01:12:26;;;;;;;7.78;2.15;;;;;;;21.93;32.49;101523.41;143719;576;47009;-57
2021/09/25 01:14:53;;;;;;;2.17;1.87;;;;;;;21.93;32.18;101536.25;143727;572;47002;-57
2021/09/25 01:17:21;;;;;;;5.05;1.85;;;;;;;21.95;31.68;101532.19;143724;613;46008;-56
2021/09/25 01:19:48;;;;;;;6.10;2.33;;;;;;;22.00;31.47;101531.41;143726;582;47010;-57
2021/09/25 01:22:15;;;;;;;4.30;1.90;;;;;;;22.02;30.87;101531.16;143723;576;47013;-58
2021/09/25 01:24:43;;;;;;;3.25;2.10;;;;;;;21.97;31.71;101537.41;143726;587;47004;-58
2021/09/25 01:27:10;;;;;;;3.17;1.90;;;;;;;21.89;32.11;101533.19;143724;596;46006;-58
2021/09/25 01:29:37;;;;;;;3.80;2.10;;;;;;;21.88;32.19;101536.19;143729;567;47004;-57
2021/09/25 01:32:06;;;;;;;3.53;2.08;;;;;;;21.87;32.25;101535.37;143727;593;47008;-56
2021/09/25 01:34:35;;;;;;;3.60;2.00;;;;;;;21.84;32.63;101533.16;143725;582;48004;-57
2021/09/25 01:37:04;;;;;;;2.87;2.15;;;;;;;21.84;32.42;101522.22;143722;579;46921;-57
2021/09/25 01:39:32;;;;;;;3.50;2.37;;;;;;;21.88;32.63;101537.03;143728;596;47004;-58
2021/09/25 01:42:00;;;;;;;3.62;2.72;;;;;;;21.89;32.37;101535.09;143720;600;47024;-58
2021/09/25 01:44:27;;;;;;;3.72;1.90;;;;;;;21.82;33.04;101535.31;143725;574;47002;-58
2021/09/25 01:46:55;;;;;;;5.37;2.20;;;;;;;21.80;32.37;101532.00;143726;613;46002;-56
2021/09/25 01:49:23;;;;;;;2.45;2.00;;;;;;;21.80;31.92;101530.06;143727;570;47005;-58
2021/09/25 01:51:51;;;;;;;6.32;2.00;;;;;;;21.80;32.55;101527.34;143726;729;47008;-57
2021/09/25 01:54:19;;;;;;;6.45;2.25;;;;;;;21.83;32.59;101536.13;143725;582;47004;-57
2021/09/25 01:56:46;;;;;;;3.67;2.00;;;;;;;21.83;32.44;101542.44;143723;758;46007;-57
2021/09/25 01:59:13;;;;;;;2.47;1.87;;;;;;;21.85;32.36;101539.44;143728;596;46010;-57
2021/09/25 02:01:40;;;;;;;6.40;2.22;;;;;;;21.86;32.77;101543.81;143725;579;47008;-58
2021/09/25 02:04:08;;;;;;;6.65;2.08;;;;;;;21.86;32.54;101543.81;143725;575;47005;-57
2021/09/25 02:06:35;;;;;;;3.90;2.35;;;;;;;21.83;32.77;101550.62;143725;574;46004;-57
2021/09/25 02:09:02;;;;;;;5.20;2.12;;;;;;;21.76;32.78;101548.09;143728;612;47002;-58
2021/09/25 02:11:29;;;;;;;2.87;2.12;;;;;;;21.79;32.57;101550.31;143727;574;47010;-57
2021/09/25 02:13:56;;;;;;;4.05;2.20;;;;;;;21.80;32.84;101556.59;143726;582;47004;-57
2021/09/25 02:16:23;;;;;;;3.65;2.30;;;;;;;21.82;32.64;101559.91;143728;603;45920;-57
2021/09/25 02:18:50;;;;;;;6.72;2.53;;;;;;;21.78;33.27;101559.59;143721;590;48002;-57
2021/09/25 02:21:17;;;;;;;4.45;3.40;;;;;;;21.74;33.78;101563.06;143727;627;47010;-57
2021/09/25 02:23:44;;;;;;;4.40;2.83;;;;;;;21.69;33.79;101568.50;143724;670;47002;-57
2021/09/25 02:26:11;;;;;;;5.05;2.75;;;;;;;21.71;33.68;101564.41;143728;591;46006;-56
2021/09/25 02:28:39;;;;;;;3.50;2.50;;;;;;;21.69;33.81;101563.03;143727;652;47002;-58
2021/09/25 02:31:06;;;;;;;7.07;2.78;;;;;;;21.70;34.16;101572.87;143727;682;47010;-56
2021/09/25 02:33:33;;;;;;;3.60;2.50;;;;;;;21.69;34.94;101574.78;143724;574;47002;-57
2021/09/25 02:36:00;;;;;;;6.70;3.08;;;;;;;21.65;34.26;101579.09;143728;570;46004;-58
2021/09/25 02:38:28;;;;;;;3.12;2.53;;;;;;;21.67;34.67;101581.59;143728;573;47006;-57
2021/09/25 02:40:55;;;;;;;6.20;2.50;;;;;;;21.67;34.11;101571.47;143726;576;47008;-57
2021/09/25 02:43:22;;;;;;;6.70;2.92;;;;;;;21.60;34.75;101584.47;143725;722;47005;-57
2021/09/25 02:45:50;;;;;;;5.22;2.75;;;;;;;21.56;35.09;101580.59;143728;567;46004;-57
2021/09/25 02:48:17;;;;;;;4.75;2.87;;;;;;;21.58;34.63;101587.44;143727;596;47002;-57
2021/09/25 02:50:44;;;;;;;9.18;3.53;;;;;;;21.54;34.38;101583.56;143723;625;47011;-56
2021/09/25 02:53:11;;;;;;;7.32;4.03;;;;;;;21.51;34.02;101586.81;143695;578;47006;-58
2021/09/25 02:55:39;;;;;;;9.20;4.37;;;;;;;21.51;34.26;101589.53;143727;591;45921;-57
2021/09/25 02:58:06;;;;;;;6.45;4.05;;;;;;;21.54;34.32;101591.75;143722;594;49009;-58
2021/09/25 03:00:33;;;;;;;8.75;4.07;;;;;;;21.54;34.19;101597.22;143721;586;47010;-58
2021/09/25 03:03:02;;;;;;;6.85;3.28;;;;;;;21.52;34.66;101588.47;143723;597;49002;-56
2021/09/25 03:05:29;;;;;;;6.50;3.85;;;;;;;21.51;34.33;101590.34;143729;592;46005;-57
2021/09/25 03:07:56;;;;;;;6.55;3.60;;;;;;;21.55;34.57;101604.34;143727;726;48002;-58
2021/09/25 03:10:23;;;;;;;8.27;3.45;;;;;;;21.49;34.39;101608.91;143729;724;47010;-56
2021/09/25 03:12:51;;;;;;;4.37;3.10;;;;;;;21.44;34.64;101608.84;143728;682;47004;-56
2021/09/25 03:15:18;;;;;;;13.10;4.05;;;;;;;21.40;34.98;101606.84;143728;711;45920;-57
2021/09/25 03:17:45;;;;;;;4.37;3.03;;;;;;;21.39;34.78;101605.19;143724;614;48004;-57
2021/09/25 03:20:13;;;;;;;4.32;2.78;;;;;;;21.38;35.43;101612.56;143723;573;48002;-57
2021/09/25 03:22:40;;;;;;;7.05;3.67;;;;;;;21.40;35.03;101613.16;143723;591;47004;-58
2021/09/25 03:25:08;;;;;;;7.00;3.35;;;;;;;21.43;35.04;101622.75;143725;588;46006;-58
2021/09/25 03:27:38;;;;;;;4.87;3.40;;;;;;;21.36;35.54;101621.00;143719;574;49007;-56
2021/09/25 03:30:08;;;;;;;7.00;3.45;;;;;;;21.28;35.74;101617.88;143726;593;47004;-57
2021/09/25 03:32:35;;;;;;;7.18;2.95;;;;;;;21.24;35.27;101623.00;143719;570;48014;-56
2021/09/25 03:35:02;;;;;;;4.68;3.10;;;;;;;21.28;35.52;101624.16;143726;720;46002;-56
2021/09/25 03:37:29;;;;;;;6.37;2.95;;;;;;;21.31;35.51;101639.22;143723;602;48008;-57
2021/09/25 03:39:57;;;;;;;5.28;3.47;;;;;;;21.21;34.92;101637.16;143726;583;48022;-57
2021/09/25 03:42:24;;;;;;;4.37;2.62;;;;;;;21.19;35.10;101637.41;143726;581;48002;-57
2021/09/25 03:44:51;;;;;;;4.00;2.80;;;;;;;21.22;34.70;101641.53;143727;585;45922;-58
2021/09/25 03:47:17;;;;;;;3.35;2.65;;;;;;;21.22;35.11;101641.53;143728;580;47016;-57
2021/09/25 03:49:45;;;;;;;6.62;3.37;;;;;;;21.17;34.87;101639.56;143720;760;49012;-57
2021/09/25 03:52:12;;;;;;;4.85;2.78;;;;;;;21.16;34.41;101643.37;143723;586;47002;-57
2021/09/25 03:54:39;;;;;;;5.15;2.30;;;;;;;21.15;34.85;101640.91;143723;568;46004;-57
2021/09/25 03:57:07;;;;;;;10.35;3.42;;;;;;;21.16;35.11;101648.03;143726;663;47003;-58
2021/09/25 03:59:34;;;;;;;9.25;3.50;;;;;;;21.16;34.86;101651.56;143715;579;49002;-57
2021/09/25 04:02:01;;;;;;;7.72;3.10;;;;;;;21.18;34.71;101652.16;143722;588;48004;-57
2021/09/25 04:04:28;;;;;;;11.20;6.07;;;;;;;21.21;34.87;101656.28;143722;579;47004;-58
2021/09/25 04:06:56;;;;;;;8.95;5.03;;;;;;;21.24;34.75;101663.16;143727;568;47002;-58
2021/09/25 04:09:23;;;;;;;5.35;4.10;;;;;;;21.21;35.01;101659.00;143719;569;48010;-58
2021/09/25 04:11:50;;;;;;;7.65;4.22;;;;;;;21.22;35.12;101662.59;143722;805;48004;-57
2021/09/25 04:14:20;;;;;;;13.50;8.25;;;;;;;21.20;34.19;101663.66;143724;922;46000;-57
2021/09/25 04:16:48;;;;;;;18.52;11.18;;;;;;;21.20;35.71;101666.41;143727;579;47004;-56
2021/09/25 04:19:15;;;;;;;12.30;5.70;;;;;;;21.19;35.41;101674.81;143724;588;47011;-57
2021/09/25 04:21:43;;;;;;;7.60;3.92;;;;;;;21.13;35.43;101673.91;143724;568;47002;-57
2021/09/25 04:24:10;;;;;;;10.23;4.53;;;;;;;21.09;35.60;101675.47;143724;588;46004;-58
2021/09/25 04:26:38;;;;;;;13.48;4.90;;;;;;;21.07;35.17;101671.34;143725;903;47004;-57
2021/09/25 04:29:06;;;;;;;11.50;4.32;;;;;;;21.10;35.29;101673.59;143723;568;48008;-58
2021/09/25 04:31:34;;;;;;;11.65;3.87;;;;;;;21.12;36.04;101679.62;143724;667;47004;-58
2021/09/25 04:34:03;;;;;;;8.98;3.65;;;;;;;21.15;35.79;101685.41;143717;660;48006;-57
2021/09/25 04:36:31;;;;;;;11.02;4.40;;;;;;;21.11;35.95;101680.69;143726;680;47004;-57
2021/09/25 04:38:59;;;;;;;11.27;3.58;;;;;;;21.15;35.76;101681.88;143715;608;49008;-57
2021/09/25 04:41:26;;;;;;;15.20;3.60;;;;;;;21.13;35.51;101690.28;143721;590;47004;-56
2021/09/25 04:43:54;;;;;;;8.55;4.35;;;;;;;21.16;35.29;101689.81;143726;572;45921;-57
2021/09/25 04:46:21;;;;;;;10.07;3.58;;;;;;;21.23;35.19;101694.31;143725;598;47004;-58
2021/09/25 04:48:48;;;;;;;8.70;3.80;;;;;;;21.20;35.28;101704.63;143725;977;47008;-56
2021/09/25 04:51:19;;;;;;;6.85;3.47;;;;;;;21.29;34.80;101696.88;143724;596;47006;-56
2021/09/25 04:53:48;;;;;;;6.68;3.28;;;;;;;21.27;35.47;101704.47;143726;651;45920;-57
2021/09/25 04:56:15;;;;;;;8.05;3.50;;;;;;;21.26;34.62;101708.28;143727;592;47005;-58
2021/09/25 04:58:43;;;;;;;6.68;3.30;;;;;;;21.30;35.48;101705.88;143722;582;47008;-57
2021/09/25 05:01:11;;;;;;;9.85;3.67;;;;;;;21.27;35.69;101704.47;143721;657;47004;-57
2021/09/25 05:03:38;;;;;;;13.88;3.87;;;;;;;21.25;35.00;101705.81;143727;577;45923;-56
2021/09/25 05:06:06;;;;;;;8.50;4.62;;;;;;;21.30;34.39;101708.63;143716;567;50006;-57
2021/09/25 05:08:33;;;;;;;8.52;4.07;;;;;;;21.40;34.31;101717.00;143721;612;49019;-56
2021/09/25 05:11:00;;;;;;;7.43;2.90;;;;;;;21.49;35.38;101718.25;143719;629;49005;-56
2021/09/25 05:13:28;;;;;;;7.00;3.08;;;;;;;21.50;35.48;101722.63;143726;592;45921;-58
2021/09/25 05:15:55;;;;;;;6.53;3.90;;;;;;;21.48;34.16;101719.31;143724;848;47006;-58
2021/09/25 05:18:22;;;;;;;6.93;3.80;;;;;;;21.50;34.11;101727.28;143718;709;48010;-56
2021/09/25 05:20:49;;;;;;;10.50;4.07;;;;;;;21.58;35.15;101724.13;143723;583;47004;-57
2021/09/25 05:23:17;;;;;;;8.65;4.03;;;;;;;21.56;35.26;101720.81;143725;584;45920;-56
2021/09/25 05:25:43;;;;;;;14.65;4.70;;;;;;;21.62;34.63;101725.31;143721;587;49002;-57
2021/09/25 05:28:11;;;;;;;12.90;4.28;;;;;;;21.72;34.93;101729.28;143723;593;47013;-56
2021/09/25 05:30:37;;;;;;;11.57;4.43;;;;;;;21.77;34.75;101738.41;143722;808;47002;-57
2021/09/25 05:33:07;;;;;;;9.30;4.47;;;;;;;21.84;35.00;101727.31;143726;590;45923;-56
2021/09/25 05:35:33;;;;;;;7.97;3.67;;;;;;;21.91;35.43;101725.22;143726;597;47004;-57
2021/09/25 05:38:01;;;;;;;10.45;4.07;;;;;;;21.93;36.47;101727.72;143721;594;47008;-57
2021/09/25 05:40:27;;;;;;;9.85;4.95;;;;;;;21.97;34.54;101720.66;143720;753;47004;-58
2021/09/25 05:42:55;;;;;;;17.70;5.18;;;;;;;22.05;33.19;101733.09;143722;582;47002;-58
2021/09/25 05:45:22;;;;;;;14.80;4.55;;;;;;;22.11;33.02;101732.91;143726;592;47000;-56
2021/09/25 05:47:49;;;;;;;11.90;4.60;;;;;;;22.16;33.36;101729.41;143722;765;47011;-56
2021/09/25 05:50:17;;;;;;;12.55;5.18;;;;;;;22.21;33.84;101734.97;143724;721;47004;-58
2021/09/25 05:52:44;;;;;;;12.57;5.40;;;;;;;22.27;33.46;101739.41;143724;597;46920;-58
2021/09/25 05:55:12;;;;;;;15.43;5.37;;;;;;;22.32;33.50;101737.81;143726;588;47013;-58
2021/09/25 05:57:43;;;;;;;10.40;4.20;;;;;;;22.39;33.47;101743.97;143721;821;47013;-59
2021/09/25 06:00:10;;;;;;;15.77;4.75;;;;;;;22.44;33.52;101746.78;143721;589;48002;-58
2021/09/25 06:02:43;;;;;;;8.93;4.10;;;;;;;22.51;33.55;101747.41;143724;573;46923;-57
2021/09/25 06:05:11;;;;;;;15.15;5.90;;;;;;;22.57;33.03;101742.84;143726;585;47004;-57
2021/09/25 06:07:39;;;;;;;14.20;5.60;;;;;;;22.66;33.65;101746.81;143725;569;46010;-57
2021/09/25 06:10:06;;;;;;;11.43;5.50;;;;;;;22.74;33.65;101748.25;143723;583;47005;-57
2021/09/25 06:12:34;;;;;;;13.18;5.22;;;;;;;22.78;32.71;101749.38;143722;572;48008;-57
2021/09/25 06:15:02;;;;;;;9.90;4.07;;;;;;;22.83;32.03;101754.91;143727;568;47004;-56
2021/09/25 06:17:29;;;;;;;15.25;5.00;;;;;;;22.89;32.40;101763.22;143723;575;47008;-56
2021/09/25 06:19:56;;;;;;;10.43;4.57;;;;;;;22.96;32.02;101761.94;143725;570;47004;-57
2021/09/25 06:22:25;;;;;;;16.60;4.60;;;;;;;23.01;32.04;101763.88;143721;574;46006;-57
2021/09/25 06:24:53;;;;;;;8.60;4.95;;;;;;;23.07;32.41;101756.53;143725;577;47004;-57
2021/09/25 06:27:20;;;;;;;10.60;4.65;;;;;;;23.14;32.64;101770.88;143722;590;48010;-56
2021/09/25 06:29:47;;;;;;;9.65;4.70;;;;;;;23.19;32.20;101772.84;143723;592;47004;-57
2021/09/25 06:32:15;;;;;;;10.32;4.45;;;;;;;23.25;31.86;101774.59;143723;748;46921;-57
2021/09/25 06:34:43;;;;;;;7.00;4.43;;;;;;;23.33;31.84;101781.53;143726;585;47002;-57
2021/09/25 06:37:10;;;;;;;10.05;4.75;;;;;;;23.36;31.65;101787.31;143722;578;48011;-57
2021/09/25 06:39:38;;;;;;;8.90;3.80;;;;;;;23.44;30.93;101791.47;143725;567;47002;-57
2021/09/25 06:42:05;;;;;;;14.45;5.05;;;;;;;23.50;31.45;101787.72;143719;599;52004;-57
2021/09/25 06:44:32;;;;;;;11.02;4.45;;;;;;;23.58;31.41;101794.62;143725;567;47002;-58
2021/09/25 06:46:59;;;;;;;7.07;4.60;;;;;;;23.65;30.79;101799.91;143724;603;47010;-57
2021/09/25 06:49:27;;;;;;;9.18;3.60;;;;;;;23.72;30.89;101803.28;143722;567;48004;-56
2021/09/25 06:51:54;;;;;;;6.15;3.30;;;;;;;23.77;30.06;101804.13;143725;706;46007;-57
2021/09/25 06:54:21;;;;;;;9.18;3.65;;;;;;;23.83;29.35;101805.00;143726;762;47005;-57
2021/09/25 06:56:49;;;;;;;9.45;3.58;;;;;;;23.90;30.34;101802.87;143721;592;48011;-57
2021/09/25 06:59:16;;;;;;;7.80;3.72;;;;;;;23.96;29.95;101801.00;143724;588;47002;-56
2021/09/25 07:01:43;;;;;;;7.12;3.60;;;;;;;24.04;29.23;101807.94;143723;599;46000;-57
2021/09/25 07:04:10;;;;;;;9.20;4.18;;;;;;;24.09;29.57;101804.41;143725;780;47022;-56
2021/09/25 07:06:40;;;;;;;7.70;3.50;;;;;;;24.13;29.84;101806.34;143725;572;47010;-57
2021/09/25 07:09:08;;;;;;;11.00;4.60;;;;;;;24.21;30.57;101808.59;143724;584;47004;-57
2021/09/25 07:11:35;;;;;;;14.05;4.55;;;;;;;24.28;30.24;101818.50;143723;647;46002;-57
2021/09/25 07:14:03;;;;;;;15.02;4.85;;;;;;;24.32;31.05;101817.75;143726;735;47006;-57
2021/09/25 07:16:31;;;;;;;11.75;4.05;;;;;;;24.38;30.56;101824.09;143719;607;50004;-57
2021/09/25 07:18:58;;;;;;;9.55;4.05;;;;;;;24.44;30.60;101811.22;143724;573;47002;-57
2021/09/25 07:21:25;;;;;;;13.75;4.35;;;;;;;24.52;30.55;101813.47;143723;603;46006;-57
2021/09/25 07:23:53;;;;;;;14.38;4.20;;;;;;;24.59;30.03;101821.47;143726;626;47004;-58
2021/09/25 07:26:20;;;;;;;15.15;4.53;;;;;;;24.67;30.23;101812.69;143722;583;48002;-56
2021/09/25 07:28:48;;;;;;;5.60;3.78;;;;;;;24.74;30.22;101807.81;143725;662;47004;-56
2021/09/25 07:31:15;;;;;;;11.52;4.47;;;;;;;24.81;29.63;101819.38;143725;573;46004;-58
2021/09/25 07:33:42;;;;;;;9.50;3.75;;;;;;;24.90;29.90;101816.94;143727;634;47002;-56
2021/09/25 07:36:10;;;;;;;9.00;3.50;;;;;;;24.97;28.29;101828.53;143723;668;47010;-57
2021/09/25 07:38:37;;;;;;;7.55;3.70;;;;;;;25.08;28.39;101823.03;143725;592;47004;-55
2021/09/25 07:41:05;;;;;;;11.32;3.92;;;;;;;25.13;28.51;101820.31;143725;592;46002;-57
2021/09/25 07:43:32;;;;;;;7.62;4.18;;;;;;;25.23;28.65;101825.88;143726;581;47008;-56
2021/09/25 07:45:59;;;;;;;8.00;3.60;;;;;;;25.24;28.39;101824.75;143722;660;47008;-57
2021/09/25 07:48:27;;;;;;;10.52;4.25;;;;;;;25.35;28.54;101825.59;143717;575;49005;-57
2021/09/25 07:50:54;;;;;;;9.45;4.60;;;;;;;25.47;28.17;101828.12;143725;706;45922;-57
2021/09/25 07:53:21;;;;;;;16.12;4.90;;;;;;;25.56;29.59;101826.50;143726;572;47002;-57
2021/09/25 07:55:49;;;;;;;8.18;4.07;;;;;;;25.63;28.14;101834.50;143723;612;48010;-57
2021/09/25 07:58:16;;;;;;;9.82;6.22;;;;;;;25.68;28.61;101830.91;143720;596;49002;-62
2021/09/25 08:00:43;;;;;;;8.50;4.80;;;;;;;25.68;28.26;101837.22;143724;578;47004;-62
2021/09/25 08:03:10;;;;;;;12.27;3.97;;;;;;;25.65;27.90;101831.44;143718;743;48004;-61
2021/09/25 08:05:38;;;;;;;8.65;4.50;;;;;;;25.67;27.87;101835.59;143724;586;47010;-62
2021/09/25 08:08:05;;;;;;;10.90;8.88;;;;;;;25.73;28.38;101839.97;143722;573;47004;-61
2021/09/25 08:10:32;;;;;;;21.17;12.80;;;;;;;25.82;28.91;101822.94;143725;575;46005;-61
2021/09/25 08:13:00;;;;;;;6.43;3.55;;;;;;;25.89;27.68;101831.72;143723;578;47002;-62
2021/09/25 08:15:27;;;;;;;22.83;16.15;;;;;;;25.99;28.96;101829.00;143724;586;47008;-62
2021/09/25 08:17:55;;;;;;;18.75;8.48;;;;;;;26.04;28.98;101828.97;143723;567;47004;-62
2021/09/25 08:20:23;;;;;;;22.23;16.33;;;;;;;26.10;28.63;101832.56;143727;570;45920;-62
2021/09/25 08:22:51;;;;;;;7.97;4.53;;;;;;;26.16;27.18;101828.72;143708;601;50021;-61
2021/09/25 08:25:19;;;;;;;19.30;15.07;;;;;;;26.22;27.79;101823.19;143721;606;47016;-63
2021/09/25 08:27:47;;;;;;;8.10;4.05;;;;;;;26.30;27.61;101828.12;143722;576;48004;-62
2021/09/25 08:30:14;;;;;;;8.30;3.78;;;;;;;26.39;26.75;101825.63;143727;606;46002;-62
2021/09/25 08:32:42;;;;;;;6.82;3.37;;;;;;;26.43;27.23;101827.56;143727;567;47004;-62
2021/09/25 08:35:09;;;;;;;13.40;7.03;;;;;;;26.54;27.56;101824.78;143725;575;47008;-63
2021/09/25 08:37:37;;;;;;;12.63;9.25;;;;;;;26.61;26.97;101822.56;143722;609;47004;-61
2021/09/25 08:40:10;;;;;;;9.93;5.07;;;;;;;26.59;27.16;101825.56;143724;615;45922;-62
2021/09/25 08:42:38;;;;;;;8.50;3.50;;;;;;;26.71;25.45;101827.22;143725;597;48004;-62
2021/09/25 08:45:06;;;;;;;17.00;10.85;;;;;;;26.82;27.24;101826.09;143724;573;47010;-64
2021/09/25 08:47:35;;;;;;;11.35;4.55;;;;;;;26.89;26.26;101823.84;143719;623;48004;-63
2021/09/25 08:50:03;;;;;;;10.50;3.22;;;;;;;27.00;25.60;101826.56;143721;584;46006;-63
2021/09/25 08:52:30;;;;;;;4.43;3.12;;;;;;;27.11;25.05;101822.63;143727;578;47000;-63
2021/09/25 08:54:56;;;;;;;9.85;6.75;;;;;;;27.16;26.82;101827.31;143717;578;48020;-63
2021/09/25 08:57:23;;;;;;;7.28;5.12;;;;;;;27.22;25.93;101821.47;143720;626;47012;-63
2021/09/25 08:59:51;;;;;;;13.40;9.55;;;;;;;27.31;26.16;101821.69;143726;634;46002;-63
2021/09/25 09:02:20;;;;;;;13.55;9.02;;;;;;;27.23;26.45;101822.28;143726;567;47012;-62
2021/09/25 09:04:52;;;;;;;20.55;8.55;;;;;;;27.21;26.25;101822.59;143720;617;48010;-63
2021/09/25 09:07:21;;;;;;;11.27;7.30;;;;;;;27.16;26.24;101814.34;143724;586;47008;-62
2021/09/25 09:09:49;;;;;;;11.98;7.28;;;;;;;27.18;26.33;101817.63;143727;575;46002;-63
2021/09/25 09:12:22;;;;;;;9.63;8.50;;;;;;;27.26;25.67;101826.44;143726;575;47004;-63
2021/09/25 09:14:50;;;;;;;8.68;5.82;;;;;;;27.32;26.06;101825.28;143725;597;46026;-62
2021/09/25 09:17:23;;;;;;;10.98;5.37;;;;;;;27.39;25.69;101828.53;143722;656;48002;-63
2021/09/25 09:19:51;;;;;;;9.27;6.32;;;;;;;27.45;25.90;101823.81;143726;568;45918;-63
2021/09/25 09:22:19;;;;;;;14.98;8.50;;;;;;;27.45;26.32;101818.28;143723;676;50004;-62
2021/09/25 09:24:49;;;;;;;10.43;5.40;;;;;;;27.47;26.55;101827.13;143725;579;47012;-63
2021/09/25 09:27:20;;;;;;;8.18;3.78;;;;;;;27.56;26.88;101830.13;143723;620;47004;-62
2021/09/25 09:29:46;;;;;;;9.13;3.58;;;;;;;27.73;26.78;101827.78;143725;572;46002;-63
2021/09/25 09:32:14;;;;;;;7.20;4.87;;;;;;;27.81;26.62;101824.38;143725;574;48004;-63
2021/09/25 09:34:43;;;;;;;7.15;4.22;;;;;;;27.81;26.60;101827.13;143723;596;47012;-63
2021/09/25 09:37:20;;;;;;;4.80;3.55;;;;;;;27.86;25.82;101823.53;143724;578;47004;-64
2021/09/25 09:40:03;;;;;;;9.20;5.28;;;;;;;27.89;26.81;101822.94;143725;589;46009;-63
2021/09/25 09:42:47;;;;;;;9.90;5.40;;;;;;;27.91;26.65;101831.75;143725;588;47004;-63
2021/09/25 09:45:28;;;;;;;5.93;3.47;;;;;;;27.88;27.13;101828.75;143723;566;48010;-63
2021/09/25 09:48:00;;;;;;;11.75;5.70;;;;;;;27.89;27.32;101831.22;143726;567;47004;-63
2021/09/25 09:50:29;;;;;;;7.70;4.03;;;;;;;27.93;27.46;101826.75;143723;596;46008;-63
2021/09/25 09:53:14;;;;;;;8.93;5.20;;;;;;;27.96;27.20;101825.38;143728;595;48000;-63
2021/09/25 09:55:41;;;;;;;11.43;5.70;;;;;;;27.89;27.49;101827.63;143719;587;50010;-63
2021/09/25 09:58:08;;;;;;;8.02;4.00;;;;;;;27.91;27.66;101828.97;143724;572;48012;-64
2021/09/25 10:00:36;;;;;;;13.27;4.90;;;;;;;27.90;28.30;101829.28;143725;598;46004;-63
2021/09/25 10:03:06;;;;;;;8.85;5.00;;;;;;;27.83;28.55;101830.44;143725;583;48006;-63
2021/09/25 10:05:33;;;;;;;8.95;5.05;;;;;;;27.92;28.13;101832.59;143718;624;49010;-63
2021/09/25 10:08:01;;;;;;;7.30;4.68;;;;;;;27.86;29.48;101833.72;143725;643;47954;-64
2021/09/25 10:10:28;;;;;;;7.87;3.85;;;;;;;27.89;29.00;101828.44;143727;568;47002;-63
2021/09/25 10:12:57;;;;;;;6.18;4.22;;;;;;;27.92;29.04;101824.31;143730;589;47006;-64
2021/09/25 10:15:24;;;;;;;10.65;4.90;;;;;;;28.00;28.89;101820.91;143724;586;47010;-64
2021/09/25 10:17:52;;;;;;;10.55;4.60;;;;;;;27.92;29.36;101816.03;143725;576;47004;-63
2021/09/25 10:20:18;;;;;;;6.93;4.80;;;;;;;27.97;28.95;101825.06;143727;576;45923;-63
2021/09/25 10:22:46;;;;;;;11.50;5.12;;;;;;;28.08;28.27;101813.91;143725;590;49008;-63
2021/09/25 10:25:16;;;;;;;5.75;4.30;;;;;;;28.01;28.35;101825.31;143720;574;47011;-63
2021/09/25 10:27:48;;;;;;;6.20;3.62;;;;;;;27.98;28.23;101814.84;143723;589;47006;-63
2021/09/25 10:30:16;;;;;;;5.85;3.75;;;;;;;27.93;27.61;101817.66;143719;589;49002;-64
2021/09/25 10:32:51;;;;;;;8.15;4.15;;;;;;;27.83;27.29;101819.38;143728;598;47004;-64
2021/09/25 10:35:20;;;;;;;7.12;5.07;;;;;;;27.86;26.77;101812.50;143722;604;47010;-64
2021/09/25 10:37:53;;;;;;;9.23;4.50;;;;;;;28.02;26.71;101815.91;143722;593;47003;-64
2021/09/25 10:40:33;;;;;;;5.67;4.67;;;;;;;27.98;26.16;101809.31;143725;567;47002;-62
2021/09/25 10:43:17;;;;;;;5.15;3.53;;;;;;;28.00;26.22;101804.31;143729;578;47006;-64
2021/09/25 10:45:44;;;;;;;5.45;4.85;;;;;;;27.94;25.80;101800.81;143725;601;48010;-64
2021/09/25 10:48:49;;;;;;;7.12;4.10;;;;;;;27.96;25.73;101789.47;143724;594;47004;-62
2021/09/25 10:51:20;;;;;;;6.10;5.15;;;;;;;27.93;25.06;101787.28;143726;590;46002;-64
2021/09/25 10:53:49;;;;;;;4.75;2.65;;;;;;;28.07;23.24;101792.94;143724;576;50004;-63
2021/09/25 10:56:23;;;;;;;4.32;3.40;;;;;;;28.07;24.17;101799.31;143726;622;47012;-63
2021/09/25 10:59:08;;;;;;;4.40;2.12;;;;;;;28.18;24.28;101797.28;143724;615;48002;-63
2021/09/25 11:01:41;;;;;;;4.75;3.40;;;;;;;28.12;22.74;101788.25;143719;586;47006;-62
2021/09/25 11:04:26;;;;;;;5.65;4.53;;;;;;;28.18;23.06;101799.22;143718;614;48015;-63
2021/09/25 11:06:58;;;;;;;4.18;3.03;;;;;;;28.19;22.59;101798.09;143709;623;51008;-64
2021/09/25 11:09:44;;;;;;;5.15;4.00;;;;;;;28.23;22.15;101782.59;143725;587;48004;-62
2021/09/25 11:12:16;;;;;;;5.43;4.70;;;;;;;28.20;23.32;101784.00;143722;588;47006;-63
2021/09/25 11:14:51;;;;;;;7.53;4.40;;;;;;;28.12;23.12;101776.34;143727;592;47002;-63
2021/09/25 11:17:28;;;;;;;5.05;3.87;;;;;;;28.13;23.71;101787.13;143720;590;49008;-63
2021/09/25 11:20:05;;;;;;;4.37;3.53;;;;;;;28.19;23.72;101781.53;143720;601;47008;-64
2021/09/25 11:22:44;;;;;;;5.65;4.00;;;;;;;28.32;24.22;101780.84;143723;607;46008;-63
2021/09/25 11:25:21;;;;;;;6.40;3.87;;;;;;;28.36;24.56;101770.03;143728;640;47004;-63
2021/09/25 11:27:51;;;;;;;5.68;3.78;;;;;;;28.37;25.44;101777.19;143715;571;48008;-64
2021/09/25 11:30:20;;;;;;;7.25;5.57;;;;;;;28.45;24.95;101771.00;143719;593;47004;-64